Akiachak, Alaska
Current Conditions -  °F | °C
As of 8:56 PM on Tuesday 27 Jan 2015 (Local Time) from PFKW Reporting Station
Clear Clear  
Wind Chill: -18°   Ceiling: Unl
Heat Index: -2°   Visibility: 10mi
Dew Point: -6°   Wind: 9mph
Humidity: 83%   Direction: 20°NNE
Pressure: 29.95"   Gusts: NA
Location:  60.91°N, 161.44°W
Report Text: PFKW 280556Z AUTO 02008KT 10SM CLR M19/M21 A2995 RMK AO2 SLP144 T11891211 11144 21189 51013 FZRANO
Loading
Personal Weather Stations






























Interactive Weather Map New forecast layout! Learn more

10-Day Weather Forecast

Advertisements
Track Severe Weather on mobile